»·PEaware :: UAL2016 KSAN-KSFO

UAL2016 :: KSAN-KSFO

FLIGHT INFORMATION

Flight Status: Arrived
Operator:
United Airlines
More flights by this operator :: More flights under this callsign
Pilot: Alfredo R. (12181)
Aircraft: BOEING 737-800
(B738)
More flights by this aircraft type
Origin: KSAN San Diego Intl-Lindbergh
United States
Destination: KSFO San Francisco Intl
United States
More flights between these airports :: More routes between these airports
Route: PADRZ2 IKAYE RIZIN SPLNT STOKD SERFR SERFR3
File this flight plan on PilotEdge
Remarks:
Altitude:
(Current/Filed)
340ft
Speed:
(Current/Filed)
225kts
Departed: 29-Aug-19 06:26 PM
Arrived: 29-Aug-19 07:29 PM
Distance/Time
Traveled:
388nm/1:03
Distance/Time
To Go:
Arrived

Flight Plot

Page will automatically refresh every two minutes.

Flight plan parsing failed; only flown route is shown


Map Options




Map Legend


Flown Route
Filed Route
Departure Airport
Arrival Airport
Navaid (VOR, NDB)
Fix

Horizontal Profiles

Position Reports

Time Latitude Longitude Heading Altitude Ground
Speed
29-Aug-19 17:32 32.734632 -117.203772 194 17ft 0kts
29-Aug-19 17:33 32.734632 -117.203772 194 17ft 0kts
29-Aug-19 17:34 32.734632 -117.203772 194 17ft 0kts
29-Aug-19 17:35 32.734632 -117.203772 194 17ft 0kts
29-Aug-19 17:36 32.734632 -117.203772 194 17ft 0kts
29-Aug-19 17:37 32.734632 -117.203772 194 17ft 0kts
29-Aug-19 17:38 32.734632 -117.203772 194 17ft 0kts
29-Aug-19 17:39 32.734632 -117.203772 194 17ft 0kts
29-Aug-19 17:40 32.734632 -117.203772 194 17ft 0kts
29-Aug-19 17:41 32.734632 -117.203772 194 17ft 0kts
29-Aug-19 17:42 32.734632 -117.203772 194 17ft 0kts
29-Aug-19 17:43 32.734632 -117.203772 194 17ft 0kts
29-Aug-19 17:44 32.734632 -117.203772 194 17ft 0kts
29-Aug-19 17:45 32.734632 -117.203772 194 17ft 0kts
29-Aug-19 17:46 32.734632 -117.203772 194 17ft 0kts
29-Aug-19 17:47 32.734632 -117.203772 194 17ft 0kts
29-Aug-19 17:48 32.734632 -117.203772 194 17ft 0kts
29-Aug-19 17:49 32.734632 -117.203772 194 17ft 0kts
29-Aug-19 17:50 32.734632 -117.203772 194 17ft 0kts
29-Aug-19 17:51 32.734632 -117.203772 194 17ft 0kts
29-Aug-19 17:52 32.734632 -117.203772 194 17ft 0kts
29-Aug-19 17:53 32.734632 -117.203772 194 17ft 0kts
29-Aug-19 17:54 32.734632 -117.203772 194 17ft 0kts
29-Aug-19 17:55 32.734632 -117.203772 194 17ft 0kts
29-Aug-19 17:56 32.734632 -117.203772 194 17ft 0kts
29-Aug-19 17:57 32.734632 -117.203772 194 17ft 0kts
29-Aug-19 17:58 32.734632 -117.203772 194 17ft 0kts
29-Aug-19 17:59 32.734632 -117.203772 194 17ft 0kts
29-Aug-19 18:00 32.734632 -117.203772 194 17ft 0kts
29-Aug-19 18:01 32.734632 -117.203772 194 17ft 0kts
29-Aug-19 18:02 32.734632 -117.203772 194 17ft 0kts
29-Aug-19 18:03 32.734632 -117.203772 194 17ft 0kts
29-Aug-19 18:04 32.734632 -117.203772 194 17ft 0kts
29-Aug-19 18:05 32.734632 -117.203772 194 17ft 0kts
29-Aug-19 18:06 32.734632 -117.203772 194 17ft 0kts
29-Aug-19 18:07 32.734632 -117.203772 194 17ft 0kts
29-Aug-19 18:08 32.734817 -117.203715 194 17ft 2kts
29-Aug-19 18:09 32.735173 -117.203917 96 17ft 2kts
29-Aug-19 18:10 32.735061 -117.203387 103 17ft 7kts
29-Aug-19 18:11 32.735114 -117.202361 27 17ft 0kts
29-Aug-19 18:12 32.735114 -117.202361 27 17ft 0kts
29-Aug-19 18:13 32.735114 -117.202361 27 17ft 0kts
29-Aug-19 18:14 32.735114 -117.202361 27 17ft 0kts
29-Aug-19 18:15 32.735352 -117.202147 51 17ft 3kts
29-Aug-19 18:16 32.735135 -117.200439 105 17ft 10kts
29-Aug-19 18:17 32.734053 -117.195962 106 19ft 15kts
29-Aug-19 18:18 32.732988 -117.191605 108 20ft 20kts
29-Aug-19 18:19 32.731646 -117.186029 106 17ft 20kts
29-Aug-19 18:20 32.730318 -117.180557 106 17ft 18kts
29-Aug-19 18:21 32.729503 -117.176760 76 22ft 3kts
29-Aug-19 18:22 32.729533 -117.176641 72 23ft 0kts
29-Aug-19 18:23 32.729537 -117.176628 72 23ft 0kts
29-Aug-19 18:24 32.730377 -117.176571 288 24ft 10kts
29-Aug-19 18:25 32.736428 -117.199368 291 123ft 152kts
29-Aug-19 18:26 32.757042 -117.248835 305 1887ft 189kts
29-Aug-19 18:27 32.796400 -117.313339 305 4111ft 258kts
29-Aug-19 18:28 32.842745 -117.385700 305 7466ft 275kts
29-Aug-19 18:29 32.892714 -117.463217 305 10300ft 302kts
29-Aug-19 18:30 32.949622 -117.551786 306 12858ft 337kts
29-Aug-19 18:31 33.010130 -117.646158 306 15943ft 354kts
29-Aug-19 18:32 33.074737 -117.742271 316 18835ft 370kts
29-Aug-19 18:33 33.157831 -117.825786 318 21803ft 378kts
29-Aug-19 18:34 33.240360 -117.916416 314 22991ft 382kts
29-Aug-19 18:35 33.319738 -118.011285 314 23051ft 387kts
29-Aug-19 18:36 33.399730 -118.107106 314 24959ft 396kts
29-Aug-19 18:37 33.479252 -118.202616 315 26894ft 407kts
29-Aug-19 18:38 33.563346 -118.303882 315 28686ft 418kts
29-Aug-19 18:39 33.650210 -118.408762 315 30283ft 430kts
29-Aug-19 18:40 33.736332 -118.513051 315 32047ft 431kts
29-Aug-19 18:41 33.820057 -118.614757 315 33953ft 423kts
29-Aug-19 18:43 33.904309 -118.717387 315 33996ft 437kts
29-Aug-19 18:44 33.989735 -118.821807 315 33998ft 436kts
29-Aug-19 18:45 34.075530 -118.927024 315 33996ft 435kts
29-Aug-19 18:46 34.156983 -119.035169 304 34008ft 436kts
29-Aug-19 18:47 34.221004 -119.159981 303 33993ft 436kts
29-Aug-19 18:48 34.286394 -119.287489 302 33994ft 438kts
29-Aug-19 18:49 34.351681 -119.415134 302 33991ft 437kts
29-Aug-19 18:50 34.417138 -119.538977 310 33984ft 438kts
29-Aug-19 18:51 34.501977 -119.645013 315 33981ft 438kts
29-Aug-19 18:52 34.587516 -119.750193 314 33979ft 437kts
29-Aug-19 18:53 34.673918 -119.856851 314 34020ft 436kts
29-Aug-19 18:54 34.759986 -119.963559 314 34066ft 437kts
29-Aug-19 18:55 34.845888 -120.070377 314 34063ft 436kts
29-Aug-19 18:56 34.931277 -120.176976 314 34065ft 436kts
29-Aug-19 18:57 35.017528 -120.284982 313 34071ft 435kts
29-Aug-19 18:58 35.103753 -120.392493 316 34063ft 436kts
29-Aug-19 18:59 35.193601 -120.492268 317 34063ft 436kts
29-Aug-19 19:00 35.283104 -120.592462 316 34063ft 434kts
29-Aug-19 19:01 35.372554 -120.693123 316 34065ft 436kts
29-Aug-19 19:02 35.461974 -120.794195 316 34064ft 441kts
29-Aug-19 19:02 35.540916 -120.872913 322 34030ft 443kts
29-Aug-19 19:04 35.653206 -120.976318 322 32216ft 430kts
29-Aug-19 19:04 35.734524 -121.051955 322 30977ft 440kts
29-Aug-19 19:05 35.833633 -121.144491 321 29565ft 444kts
29-Aug-19 19:07 35.950409 -121.253928 321 27836ft 449kts
29-Aug-19 19:07 36.036447 -121.334849 321 26540ft 452kts
29-Aug-19 19:08 36.142087 -121.423299 326 24984ft 438kts
29-Aug-19 19:09 36.244997 -121.503061 326 23426ft 409kts
29-Aug-19 19:10 36.341348 -121.578375 325 21880ft 398kts
29-Aug-19 19:11 36.433632 -121.650778 324 20329ft 379kts
29-Aug-19 19:12 36.525015 -121.722774 324 18784ft 374kts
29-Aug-19 19:13 36.614723 -121.793697 324 17253ft 368kts
29-Aug-19 19:14 36.702357 -121.863175 324 15719ft 361kts
29-Aug-19 19:15 36.797502 -121.910858 345 14426ft 363kts
29-Aug-19 19:16 36.896640 -121.938012 345 13212ft 357kts
29-Aug-19 19:17 36.992729 -121.968393 339 11953ft 338kts
29-Aug-19 19:18 37.084340 -122.004185 339 10733ft 333kts
29-Aug-19 19:19 37.170620 -122.037920 339 9318ft 304kts
29-Aug-19 19:20 37.249179 -122.068726 339 7963ft 288kts
29-Aug-19 19:21 37.326055 -122.099028 340 6623ft 287kts
29-Aug-19 19:22 37.400771 -122.127368 340 5434ft 273kts
29-Aug-19 19:23 37.470007 -122.151050 341 4209ft 244kts
29-Aug-19 19:24 37.517768 -122.194871 293 3180ft 209kts
29-Aug-19 19:25 37.548686 -122.248713 301 2961ft 184kts
29-Aug-19 19:26 37.585777 -122.297334 303 1536ft 190kts
29-Aug-19 19:27 37.607992 -122.349189 292 218ft 139kts
29-Aug-19 19:28 37.619662 -122.378073 297 27ft 21kts
29-Aug-19 19:29 37.619150 -122.380709 287 30ft 13kts
29-Aug-19 19:30 37.619159 -122.383440 290 30ft 0kts
29-Aug-19 19:31 37.619183 -122.383521 290 30ft 0kts
29-Aug-19 19:32 37.619183 -122.383521 290 30ft 0kts
29-Aug-19 19:33 37.619183 -122.383521 290 30ft 0kts

Navigation Log

Ident Type
Flight plan parsing failed, navigation log unavailable